Ana Sayfa
METAR-TAF:

METAR-TAF

Havaalanları :

Houston, Teksas, Amerika Birleşik Devletleri

Enlem: 29-48-18N, Boylam: 095-53-52W, yükseklik: 51 m

Güncel hava durumu gözlemi

Rapor saat 10:55 UTC de 11 dakika önce yapıldı.
Rüzgar kuzeybatıdan 12 kt ve 21 kt'a kadar ani rüzgarlar
Sıcaklık 9°C
Nem 71%
Basınç 1015 hPa
Görüş mesafesi: 16.1 km
3000 ft yükseklikte çok bulutlu

METAR: KTME 291055Z AUTO 32012G21KT 10SM OVC030 09/04 A2997 RMK AO2

Saat: 04:06 (11:06 UTC)


TAF: eksik

4.000'den fazla havaalanı için hava durumu gözlemleri ve tahminleri (METAR ve TAF raporları).

Kullanılabilir istasyonlar harita üzerinde sarı ve kırmızı noktalarla gösterilir.

İstasyonun adını görmek için fareyi noktanın üzerinde gezdirin.

Sonrasında hava gözlem ve tahminlerini görmek için tıklayın.

Haritayı değiştirmek için: yaklaştırmak için siyah artı işaretli yeşil düğmeye ve uzaklaştırmak için de eksi işaretli düğmeye hızla tıklayın; bitişik haritalar için yeşil okları kullanın.


METAR-TAF: